Anderson, Indiana
Current Conditions -  °F | °C
As of 12:53 AM on Friday 19 Dec 2014 (Local Time) from KMIE Reporting Station
Overcast Overcast  
Wind Chill: -8°   Ceiling: 1700
Heat Index: -3°   Visibility: 10mi
Dew Point: -7°   Wind: 7mph
Humidity: 78%   Direction: 280°W
Pressure: 30.23"   Gusts: NA
Location:  40.1°N, 85.68°W
Report Text: KMIE 190553Z AUTO 28006KT 10SM OVC017 M03/M07 A3023 RMK AO2 SLP247 T10331067 11028 21033 50000
Loading
Personal Weather Stations






























Interactive Weather Map New forecast layout! Learn more

10-Day Weather Forecast

Advertisements
Track Severe Weather on mobile